AAR324 ZUTF-RKSI
Flight info
| Callsign | AAR324 |
|---|---|
| Flight time | N/A |
| Altitude | 35100 |
| Route | K0850S1070 SAGPI9G SAGPI W81 APIMI W275 NSH G212 VYK W34 VAPGU W100 ORAVA W201 UNSEK A326 DONVO G597 AGAVO/N0453F350 Y644 REBIT REBIT1Y |
| Aircraft | A321/M-SDE3FGHIRWY/LB1 |
Departure
| Time | 2026-05-07 13:24 |
|---|---|
| Airport | Chengdu Tianfu International Airport (ZUTF) |
Arrival
| Time | N/A |
|---|---|
| Airport | Incheon International Airport (RKSI) |
| Time | Latitude | Longitude | Altitude | Speed | Heading |
|---|---|---|---|---|---|
| 2026-05-07 13:01 | 30.32008 | 104.43857 | 1450 ft | 0 kts | 94° |
| 2026-05-07 13:11 | 30.32008 | 104.43850 | 1427 ft | 2 kts | 92° |
| 2026-05-07 13:11 | 30.32008 | 104.43828 | 1434 ft | 3 kts | 82° |
| 2026-05-07 13:11 | 30.32004 | 104.43805 | 1450 ft | 3 kts | 69° |
| 2026-05-07 13:12 | 30.31996 | 104.43784 | 1445 ft | 3 kts | 62° |
| 2026-05-07 13:12 | 30.31989 | 104.43769 | 1446 ft | 1 kts | 64° |
| 2026-05-07 13:12 | 30.31989 | 104.43768 | 1446 ft | 0 kts | 64° |
| 2026-05-07 13:15 | 30.31999 | 104.43770 | 1445 ft | 3 kts | 5° |
| 2026-05-07 13:15 | 30.32041 | 104.43753 | 1447 ft | 8 kts | 340° |
| 2026-05-07 13:16 | 30.32084 | 104.43715 | 1450 ft | 8 kts | 299° |
| 2026-05-07 13:16 | 30.32111 | 104.43642 | 1450 ft | 14 kts | 292° |
| 2026-05-07 13:16 | 30.32132 | 104.43548 | 1448 ft | 5 kts | 251° |
| 2026-05-07 13:16 | 30.32128 | 104.43539 | 1448 ft | 3 kts | 237° |
| 2026-05-07 13:17 | 30.32094 | 104.43511 | 1450 ft | 9 kts | 206° |
| 2026-05-07 13:17 | 30.32013 | 104.43473 | 1450 ft | 16 kts | 201° |
| 2026-05-07 13:17 | 30.31883 | 104.43411 | 1450 ft | 24 kts | 202° |
| 2026-05-07 13:17 | 30.31723 | 104.43336 | 1451 ft | 25 kts | 202° |
| 2026-05-07 13:18 | 30.31556 | 104.43257 | 1451 ft | 28 kts | 202° |
| 2026-05-07 13:18 | 30.31364 | 104.43169 | 1451 ft | 30 kts | 202° |
| 2026-05-07 13:18 | 30.31172 | 104.43078 | 1452 ft | 29 kts | 202° |
| 2026-05-07 13:18 | 30.30984 | 104.42990 | 1452 ft | 29 kts | 201° |
| 2026-05-07 13:19 | 30.30799 | 104.42902 | 1452 ft | 28 kts | 202° |
| 2026-05-07 13:19 | 30.30617 | 104.42817 | 1452 ft | 28 kts | 202° |
| 2026-05-07 13:19 | 30.30435 | 104.42730 | 1452 ft | 30 kts | 202° |
| 2026-05-07 13:19 | 30.30238 | 104.42638 | 1452 ft | 30 kts | 202° |
| 2026-05-07 13:20 | 30.30044 | 104.42548 | 1452 ft | 30 kts | 201° |
| 2026-05-07 13:20 | 30.29852 | 104.42457 | 1451 ft | 30 kts | 202° |
| 2026-05-07 13:20 | 30.29662 | 104.42367 | 1449 ft | 29 kts | 202° |
| 2026-05-07 13:20 | 30.29475 | 104.42279 | 1451 ft | 29 kts | 202° |
| 2026-05-07 13:21 | 30.29289 | 104.42192 | 1449 ft | 29 kts | 202° |
| 2026-05-07 13:21 | 30.29104 | 104.42106 | 1448 ft | 28 kts | 203° |
| 2026-05-07 13:21 | 30.28985 | 104.42050 | 1448 ft | 12 kts | 203° |
| 2026-05-07 13:21 | 30.28979 | 104.41970 | 1447 ft | 11 kts | 293° |
| 2026-05-07 13:22 | 30.29012 | 104.41879 | 1449 ft | 13 kts | 291° |
| 2026-05-07 13:22 | 30.29052 | 104.41785 | 1444 ft | 12 kts | 321° |
| 2026-05-07 13:22 | 30.29108 | 104.41785 | 1448 ft | 13 kts | 17° |
| 2026-05-07 13:22 | 30.29200 | 104.41827 | 1448 ft | 20 kts | 22° |
| 2026-05-07 13:23 | 30.29721 | 104.42072 | 1451 ft | 104 kts | 22° |
| 2026-05-07 13:23 | 30.30574 | 104.42473 | 1453 ft | 158 kts | 22° |
| 2026-05-07 13:23 | 30.31314 | 104.42822 | 1454 ft | 187 kts | 21° |
| 2026-05-07 13:23 | 30.32631 | 104.43398 | 1720 ft | 205 kts | 17° |
| 2026-05-07 13:24 | 30.34011 | 104.43731 | 2381 ft | 206 kts | 12° |
| 2026-05-07 13:24 | 30.35451 | 104.43948 | 3111 ft | 207 kts | 12° |
| 2026-05-07 13:24 | 30.36884 | 104.44156 | 3539 ft | 217 kts | 11° |
| 2026-05-07 13:24 | 30.38459 | 104.44368 | 3669 ft | 239 kts | 10° |
| 2026-05-07 13:25 | 30.40116 | 104.44860 | 3915 ft | 254 kts | 30° |
| 2026-05-07 13:25 | 30.41687 | 104.45859 | 4517 ft | 259 kts | 31° |
| 2026-05-07 13:25 | 30.43272 | 104.46873 | 5227 ft | 262 kts | 30° |
| 2026-05-07 13:25 | 30.44874 | 104.47893 | 5935 ft | 264 kts | 30° |
| 2026-05-07 13:26 | 30.46499 | 104.48926 | 6638 ft | 267 kts | 29° |
| 2026-05-07 13:26 | 30.48136 | 104.49969 | 7306 ft | 270 kts | 29° |
| 2026-05-07 13:26 | 30.49777 | 104.51016 | 7998 ft | 272 kts | 28° |
| 2026-05-07 13:26 | 30.51444 | 104.52080 | 8694 ft | 274 kts | 28° |
| 2026-05-07 13:27 | 30.53122 | 104.53150 | 9380 ft | 276 kts | 28° |
| 2026-05-07 13:27 | 30.54810 | 104.54228 | 10061 ft | 278 kts | 28° |
| 2026-05-07 13:27 | 30.56549 | 104.55338 | 10390 ft | 295 kts | 28° |
| 2026-05-07 13:27 | 30.58408 | 104.56524 | 10503 ft | 316 kts | 28° |
| 2026-05-07 13:28 | 30.60400 | 104.57798 | 10640 ft | 337 kts | 28° |
| 2026-05-07 13:28 | 30.62512 | 104.59153 | 10758 ft | 356 kts | 28° |
| 2026-05-07 13:28 | 30.64710 | 104.60565 | 11137 ft | 365 kts | 28° |
| 2026-05-07 13:28 | 30.66944 | 104.62001 | 11660 ft | 370 kts | 28° |
| 2026-05-07 13:29 | 30.69201 | 104.63489 | 12196 ft | 375 kts | 33° |
| 2026-05-07 13:29 | 30.71169 | 104.65503 | 12717 ft | 381 kts | 50° |
| 2026-05-07 13:29 | 30.72585 | 104.68120 | 13241 ft | 386 kts | 61° |
| 2026-05-07 13:29 | 30.73859 | 104.70889 | 13785 ft | 391 kts | 62° |
| 2026-05-07 13:30 | 30.75128 | 104.73707 | 14246 ft | 397 kts | 62° |
| 2026-05-07 13:30 | 30.76407 | 104.76577 | 14678 ft | 403 kts | 62° |
| 2026-05-07 13:30 | 30.77702 | 104.79486 | 15139 ft | 408 kts | 62° |
| 2026-05-07 13:30 | 30.79016 | 104.82434 | 15610 ft | 412 kts | 62° |
| 2026-05-07 13:31 | 30.80349 | 104.85415 | 16074 ft | 418 kts | 62° |
| 2026-05-07 13:31 | 30.81701 | 104.88430 | 16512 ft | 423 kts | 62° |
| 2026-05-07 13:31 | 30.83074 | 104.91487 | 16959 ft | 429 kts | 62° |
| 2026-05-07 13:31 | 30.84458 | 104.94575 | 17393 ft | 434 kts | 62° |
| 2026-05-07 13:32 | 30.85860 | 104.97709 | 17817 ft | 439 kts | 62° |
| 2026-05-07 13:32 | 30.87272 | 105.00874 | 18228 ft | 444 kts | 61° |
| 2026-05-07 13:32 | 30.88707 | 105.04082 | 18600 ft | 448 kts | 61° |
| 2026-05-07 13:32 | 30.90146 | 105.07304 | 18959 ft | 451 kts | 61° |
| 2026-05-07 13:33 | 30.91602 | 105.10564 | 19312 ft | 455 kts | 61° |
| 2026-05-07 13:33 | 30.93061 | 105.13836 | 19658 ft | 458 kts | 61° |
| 2026-05-07 13:33 | 30.94530 | 105.17142 | 20000 ft | 460 kts | 61° |
| 2026-05-07 13:33 | 30.96003 | 105.20465 | 20333 ft | 464 kts | 61° |
| 2026-05-07 13:34 | 30.97486 | 105.23818 | 20662 ft | 467 kts | 61° |
| 2026-05-07 13:34 | 31.00477 | 105.30578 | 21306 ft | 472 kts | 61° |
| 2026-05-07 13:34 | 31.01989 | 105.33987 | 21605 ft | 475 kts | 61° |
| 2026-05-07 13:35 | 31.03512 | 105.37424 | 21915 ft | 478 kts | 61° |
| 2026-05-07 13:35 | 31.05040 | 105.40877 | 22212 ft | 481 kts | 61° |
| 2026-05-07 13:35 | 31.06595 | 105.44346 | 22549 ft | 483 kts | 60° |
| 2026-05-07 13:35 | 31.08199 | 105.47796 | 22839 ft | 485 kts | 59° |
| 2026-05-07 13:36 | 31.09849 | 105.51251 | 23131 ft | 488 kts | 58° |
| 2026-05-07 13:36 | 31.11518 | 105.54700 | 23418 ft | 491 kts | 58° |
| 2026-05-07 13:36 | 31.12268 | 105.56249 | 23548 ft | 491 kts | 58° |
| 2026-05-07 13:36 | 31.13935 | 105.59701 | 23689 ft | 487 kts | 58° |
| 2026-05-07 13:37 | 31.15594 | 105.63168 | 23809 ft | 493 kts | 59° |
| 2026-05-07 13:37 | 31.17258 | 105.66682 | 24025 ft | 496 kts | 59° |
| 2026-05-07 13:37 | 31.18923 | 105.70226 | 24274 ft | 499 kts | 59° |
| 2026-05-07 13:37 | 31.20592 | 105.73794 | 24532 ft | 501 kts | 59° |
| 2026-05-07 13:38 | 31.22266 | 105.77375 | 24784 ft | 503 kts | 59° |
| 2026-05-07 13:38 | 31.23946 | 105.80969 | 25047 ft | 505 kts | 59° |
| 2026-05-07 13:38 | 31.25636 | 105.84571 | 25304 ft | 507 kts | 59° |
| 2026-05-07 13:38 | 31.27340 | 105.88195 | 25564 ft | 509 kts | 59° |
| 2026-05-07 13:39 | 31.29045 | 105.91829 | 25823 ft | 511 kts | 59° |
| 2026-05-07 13:39 | 31.30760 | 105.95479 | 26086 ft | 513 kts | 59° |
| 2026-05-07 13:39 | 31.32477 | 105.99141 | 26355 ft | 515 kts | 59° |
| 2026-05-07 13:39 | 31.34199 | 106.02818 | 26623 ft | 517 kts | 58° |
| 2026-05-07 13:40 | 31.36121 | 106.06365 | 26880 ft | 515 kts | 50° |
| 2026-05-07 13:40 | 31.38429 | 106.09557 | 27140 ft | 513 kts | 43° |
| 2026-05-07 13:40 | 31.40887 | 106.12591 | 27484 ft | 513 kts | 43° |
| 2026-05-07 13:40 | 31.43334 | 106.15621 | 27860 ft | 512 kts | 43° |
| 2026-05-07 13:41 | 31.45806 | 106.18689 | 28247 ft | 511 kts | 43° |
| 2026-05-07 13:41 | 31.48210 | 106.21690 | 28603 ft | 511 kts | 43° |
| 2026-05-07 13:41 | 31.50632 | 106.24729 | 28976 ft | 510 kts | 43° |
| 2026-05-07 13:41 | 31.53083 | 106.27813 | 29348 ft | 510 kts | 43° |
| 2026-05-07 13:42 | 31.55494 | 106.30852 | 29721 ft | 509 kts | 43° |
| 2026-05-07 13:42 | 31.57901 | 106.33886 | 30100 ft | 508 kts | 43° |
| 2026-05-07 13:42 | 31.60305 | 106.36918 | 30423 ft | 507 kts | 43° |
| 2026-05-07 13:42 | 31.62706 | 106.39945 | 30706 ft | 508 kts | 43° |
| 2026-05-07 13:43 | 31.65119 | 106.42976 | 30980 ft | 508 kts | 43° |
| 2026-05-07 13:43 | 31.67535 | 106.45986 | 31278 ft | 507 kts | 42° |
| 2026-05-07 13:43 | 31.69965 | 106.48993 | 31548 ft | 508 kts | 42° |
| 2026-05-07 13:43 | 31.72405 | 106.52001 | 31819 ft | 508 kts | 42° |
| 2026-05-07 13:44 | 31.74842 | 106.55008 | 32106 ft | 508 kts | 42° |
| 2026-05-07 13:44 | 31.77279 | 106.58024 | 32365 ft | 509 kts | 42° |
| 2026-05-07 13:44 | 31.79716 | 106.61051 | 32618 ft | 510 kts | 42° |
| 2026-05-07 13:44 | 31.82146 | 106.64080 | 32868 ft | 510 kts | 42° |
| 2026-05-07 13:45 | 31.84581 | 106.67127 | 33118 ft | 511 kts | 42° |
| 2026-05-07 13:45 | 31.87016 | 106.70172 | 33374 ft | 512 kts | 42° |
| 2026-05-07 13:45 | 31.89457 | 106.73226 | 33614 ft | 512 kts | 42° |
| 2026-05-07 13:45 | 31.91897 | 106.76280 | 33858 ft | 513 kts | 42° |
| 2026-05-07 13:46 | 31.94345 | 106.79343 | 34118 ft | 513 kts | 42° |
| 2026-05-07 13:46 | 31.96788 | 106.82397 | 34334 ft | 513 kts | 42° |
| 2026-05-07 13:46 | 31.99235 | 106.85457 | 34525 ft | 514 kts | 41° |
| 2026-05-07 13:46 | 32.01685 | 106.88528 | 34740 ft | 514 kts | 41° |
| 2026-05-07 13:47 | 32.04132 | 106.91602 | 34946 ft | 515 kts | 41° |
| 2026-05-07 13:47 | 32.06585 | 106.94690 | 35148 ft | 516 kts | 41° |
| 2026-05-07 13:47 | 32.09042 | 106.97777 | 35247 ft | 517 kts | 41° |
| 2026-05-07 13:48 | 32.13992 | 107.03947 | 35266 ft | 518 kts | 41° |
| 2026-05-07 13:48 | 32.19074 | 107.09932 | 35271 ft | 514 kts | 37° |
| 2026-05-07 13:49 | 32.24414 | 107.15495 | 35279 ft | 510 kts | 34° |
| 2026-05-07 13:49 | 32.29802 | 107.20962 | 35282 ft | 511 kts | 34° |
| 2026-05-07 13:50 | 32.35134 | 107.26543 | 35293 ft | 512 kts | 36° |
| 2026-05-07 13:50 | 32.40413 | 107.32213 | 35305 ft | 513 kts | 36° |
| 2026-05-07 13:51 | 32.45685 | 107.37896 | 35320 ft | 513 kts | 36° |
| 2026-05-07 13:51 | 32.50971 | 107.43559 | 35321 ft | 513 kts | 36° |
| 2026-05-07 13:52 | 32.56265 | 107.49214 | 35320 ft | 511 kts | 36° |
| 2026-05-07 13:52 | 32.61548 | 107.54860 | 35320 ft | 511 kts | 36° |
| 2026-05-07 13:53 | 32.66822 | 107.60525 | 35319 ft | 512 kts | 36° |
| 2026-05-07 13:53 | 32.72084 | 107.66206 | 35322 ft | 511 kts | 37° |
| 2026-05-07 13:54 | 32.77341 | 107.71873 | 35292 ft | 508 kts | 36° |
| 2026-05-07 13:54 | 32.82594 | 107.77540 | 35294 ft | 509 kts | 36° |
| 2026-05-07 13:55 | 32.87844 | 107.83213 | 35307 ft | 511 kts | 36° |
| 2026-05-07 13:55 | 32.93098 | 107.88895 | 35304 ft | 509 kts | 36° |
| 2026-05-07 13:56 | 32.98340 | 107.94581 | 35310 ft | 509 kts | 36° |
| 2026-05-07 13:56 | 33.03571 | 108.00266 | 35308 ft | 509 kts | 37° |
| 2026-05-07 13:57 | 33.08805 | 108.05969 | 35320 ft | 510 kts | 37° |
| 2026-05-07 13:57 | 33.14031 | 108.11667 | 35326 ft | 508 kts | 36° |
| 2026-05-07 13:58 | 33.19251 | 108.17362 | 35329 ft | 507 kts | 37° |
| 2026-05-07 13:58 | 33.24443 | 108.23050 | 35333 ft | 507 kts | 36° |
| 2026-05-07 13:59 | 33.29640 | 108.28738 | 35341 ft | 506 kts | 34° |
| 2026-05-07 13:59 | 33.35391 | 108.33283 | 35349 ft | 489 kts | 18° |
| 2026-05-07 14:00 | 33.41495 | 108.36884 | 35358 ft | 489 kts | 19° |
| 2026-05-07 14:00 | 33.47586 | 108.40499 | 35350 ft | 489 kts | 19° |
| 2026-05-07 14:01 | 33.52648 | 108.43520 | 35358 ft | 489 kts | 19° |
| 2026-05-07 14:01 | 33.58740 | 108.47162 | 35360 ft | 489 kts | 19° |
| 2026-05-07 14:02 | 33.64828 | 108.50800 | 35368 ft | 489 kts | 19° |
| 2026-05-07 14:02 | 33.70923 | 108.54445 | 35365 ft | 490 kts | 18° |
| 2026-05-07 14:03 | 33.77023 | 108.58092 | 35363 ft | 489 kts | 19° |
| 2026-05-07 14:03 | 33.83116 | 108.61750 | 35363 ft | 490 kts | 19° |
| 2026-05-07 14:04 | 33.89219 | 108.65417 | 35365 ft | 491 kts | 19° |
| 2026-05-07 14:04 | 33.95315 | 108.69094 | 35362 ft | 490 kts | 19° |
| 2026-05-07 14:05 | 34.01420 | 108.72775 | 35346 ft | 490 kts | 18° |
| 2026-05-07 14:05 | 34.07513 | 108.76447 | 35337 ft | 490 kts | 18° |
| 2026-05-07 14:06 | 34.13611 | 108.80139 | 35332 ft | 490 kts | 18° |
| 2026-05-07 14:06 | 34.19719 | 108.83805 | 35331 ft | 488 kts | 15° |
| 2026-05-07 14:06 | 34.22878 | 108.85185 | 35333 ft | 477 kts | 6° |
| 2026-05-07 14:07 | 34.26089 | 108.85986 | 35335 ft | 467 kts | 358° |
| 2026-05-07 14:07 | 34.32522 | 108.87016 | 35338 ft | 466 kts | 358° |
| 2026-05-07 14:08 | 34.38958 | 108.88068 | 35344 ft | 467 kts | 358° |
| 2026-05-07 14:08 | 34.45394 | 108.89127 | 35345 ft | 467 kts | 358° |
| 2026-05-07 14:09 | 34.51837 | 108.90182 | 35341 ft | 467 kts | 358° |
| 2026-05-07 14:09 | 34.58271 | 108.91240 | 35341 ft | 467 kts | 358° |
| 2026-05-07 14:09 | 34.61484 | 108.92074 | 35338 ft | 478 kts | 7° |
| 2026-05-07 14:10 | 34.64678 | 108.93222 | 35340 ft | 479 kts | 7° |
| 2026-05-07 14:10 | 34.71070 | 108.95536 | 35344 ft | 479 kts | 7° |
| 2026-05-07 14:11 | 34.77453 | 108.97851 | 35343 ft | 479 kts | 7° |
| 2026-05-07 14:11 | 34.83840 | 109.00175 | 35346 ft | 480 kts | 8° |
| 2026-05-07 14:12 | 34.90214 | 109.02649 | 35351 ft | 481 kts | 9° |
| 2026-05-07 14:12 | 34.96571 | 109.05201 | 35352 ft | 481 kts | 10° |
| 2026-05-07 14:13 | 35.02938 | 109.07756 | 35354 ft | 481 kts | 10° |
| 2026-05-07 14:13 | 35.09302 | 109.10284 | 35365 ft | 481 kts | 9° |
| 2026-05-07 14:14 | 35.15673 | 109.12799 | 35364 ft | 481 kts | 10° |
| 2026-05-07 14:14 | 35.22031 | 109.15319 | 35364 ft | 480 kts | 10° |
| 2026-05-07 14:15 | 35.28380 | 109.17848 | 35366 ft | 480 kts | 10° |
| 2026-05-07 14:15 | 35.34728 | 109.20374 | 35370 ft | 480 kts | 10° |
| 2026-05-07 14:16 | 35.41076 | 109.22899 | 35363 ft | 479 kts | 10° |
| 2026-05-07 14:16 | 35.47417 | 109.25438 | 35368 ft | 479 kts | 10° |
| 2026-05-07 14:17 | 35.53757 | 109.27981 | 35361 ft | 479 kts | 10° |
| 2026-05-07 14:17 | 35.60083 | 109.30517 | 35361 ft | 478 kts | 10° |
| 2026-05-07 14:18 | 35.66407 | 109.33055 | 35364 ft | 477 kts | 10° |
| 2026-05-07 14:18 | 35.72709 | 109.35636 | 35363 ft | 480 kts | 14° |
| 2026-05-07 14:18 | 35.75738 | 109.37464 | 35362 ft | 491 kts | 24° |
| 2026-05-07 14:19 | 35.78496 | 109.39911 | 35365 ft | 501 kts | 35° |
| 2026-05-07 14:19 | 35.80979 | 109.43042 | 35357 ft | 509 kts | 46° |
| 2026-05-07 14:19 | 35.83093 | 109.46574 | 35368 ft | 512 kts | 49° |
| 2026-05-07 14:20 | 35.87241 | 109.53654 | 35354 ft | 513 kts | 49° |
| 2026-05-07 14:20 | 35.91427 | 109.60782 | 35359 ft | 513 kts | 49° |
| 2026-05-07 14:21 | 35.95618 | 109.67918 | 35363 ft | 514 kts | 49° |
| 2026-05-07 14:21 | 35.99799 | 109.75070 | 35363 ft | 514 kts | 49° |
| 2026-05-07 14:22 | 36.03976 | 109.82232 | 35358 ft | 514 kts | 49° |
| 2026-05-07 14:22 | 36.08179 | 109.89450 | 35356 ft | 514 kts | 49° |
| 2026-05-07 14:23 | 36.12346 | 109.96633 | 35358 ft | 514 kts | 49° |
| 2026-05-07 14:23 | 36.16484 | 110.03778 | 35352 ft | 514 kts | 49° |
| 2026-05-07 14:24 | 36.20675 | 110.11016 | 35352 ft | 514 kts | 49° |
| 2026-05-07 14:24 | 36.24833 | 110.18226 | 35343 ft | 515 kts | 49° |